Novoselenginsk, Russia
Current Conditions -  °F | °C
As of 5:30 AM on Friday 24 Oct 2014 (Local Time) from UIUU Reporting Station
Haze Haze  
Wind Chill: 27°   Ceiling: 10000
Heat Index: 27°   Visibility: 1.5mi
Dew Point: 27°   Wind: 2mph
Humidity: 100%   Direction: 80°E
Pressure: 29.8"   Gusts: NA
Location:  51.09°N, 106.63°E
Report Text: UIUU 232130Z 08001MPS 2500 BR FEW016 BKN100 M03/M03 Q1009 NOSIGRMK QFE712/0950 26CLRD60
Loading
Personal Weather Stations






























Interactive Weather Map
Tropical Storm Tracking
New forecast layout! Learn more

10-Day Weather Forecast

Advertisements
Track Severe Weather on mobile